sensor_id;sensor_type;location;lat;lon;timestamp;P1;durP1;ratioP1;P2;durP2;ratioP2
11817;SDS011;5966;52.402;5.322;2023-05-10T00:01:44;12.67;;;10.13;;
11817;SDS011;5966;52.402;5.322;2023-05-10T00:04:23;13.03;;;10.33;;
11817;SDS011;5966;52.402;5.322;2023-05-10T00:06:53;14.17;;;10.83;;
11817;SDS011;5966;52.402;5.322;2023-05-10T00:09:24;14.13;;;10.93;;
11817;SDS011;5966;52.402;5.322;2023-05-10T00:11:52;13.40;;;11.43;;
11817;SDS011;5966;52.402;5.322;2023-05-10T00:14:20;14.33;;;11.10;;
11817;SDS011;5966;52.402;5.322;2023-05-10T00:16:48;15.13;;;11.47;;
11817;SDS011;5966;52.402;5.322;2023-05-10T00:19:23;13.27;;;11.33;;
11817;SDS011;5966;52.402;5.322;2023-05-10T00:21:51;15.20;;;11.97;;
11817;SDS011;5966;52.402;5.322;2023-05-10T00:24:19;16.20;;;12.07;;
11817;SDS011;5966;52.402;5.322;2023-05-10T00:26:48;15.13;;;11.77;;
11817;SDS011;5966;52.402;5.322;2023-05-10T00:29:16;15.97;;;12.67;;
11817;SDS011;5966;52.402;5.322;2023-05-10T00:31:44;15.37;;;12.60;;
11817;SDS011;5966;52.402;5.322;2023-05-10T00:34:12;15.40;;;12.07;;
11817;SDS011;5966;52.402;5.322;2023-05-10T00:36:41;15.57;;;12.73;;
11817;SDS011;5966;52.402;5.322;2023-05-10T00:39:09;15.37;;;12.90;;
11817;SDS011;5966;52.402;5.322;2023-05-10T00:41:37;16.73;;;13.00;;
11817;SDS011;5966;52.402;5.322;2023-05-10T00:44:08;17.70;;;13.90;;
11817;SDS011;5966;52.402;5.322;2023-05-10T00:46:38;19.67;;;13.77;;
11817;SDS011;5966;52.402;5.322;2023-05-10T00:49:06;17.60;;;13.53;;
11817;SDS011;5966;52.402;5.322;2023-05-10T00:51:34;17.40;;;13.80;;
11817;SDS011;5966;52.402;5.322;2023-05-10T00:54:05;18.47;;;14.33;;
11817;SDS011;5966;52.402;5.322;2023-05-10T00:56:34;17.30;;;14.17;;
11817;SDS011;5966;52.402;5.322;2023-05-10T00:59:02;19.47;;;14.30;;
11817;SDS011;5966;52.402;5.322;2023-05-10T01:01:32;19.50;;;14.67;;
11817;SDS011;5966;52.402;5.322;2023-05-10T01:04:00;20.97;;;14.93;;
11817;SDS011;5966;52.402;5.322;2023-05-10T01:06:29;22.33;;;16.80;;
11817;SDS011;5966;52.402;5.322;2023-05-10T01:08:57;18.50;;;14.77;;
11817;SDS011;5966;52.402;5.322;2023-05-10T01:11:25;20.50;;;16.53;;
11817;SDS011;5966;52.402;5.322;2023-05-10T01:13:55;19.90;;;16.53;;
11817;SDS011;5966;52.402;5.322;2023-05-10T01:16:24;21.50;;;16.30;;
11817;SDS011;5966;52.402;5.322;2023-05-10T01:18:55;19.90;;;16.73;;
11817;SDS011;5966;52.402;5.322;2023-05-10T01:21:29;23.47;;;17.50;;
11817;SDS011;5966;52.402;5.322;2023-05-10T01:24:16;23.23;;;18.00;;
11817;SDS011;5966;52.402;5.322;2023-05-10T01:27:02;26.67;;;18.10;;
11817;SDS011;5966;52.402;5.322;2023-05-10T01:32:59;24.70;;;18.23;;
11817;SDS011;5966;52.402;5.322;2023-05-10T01:35:34;25.07;;;18.63;;
11817;SDS011;5966;52.402;5.322;2023-05-10T01:38:09;27.13;;;20.30;;
11817;SDS011;5966;52.402;5.322;2023-05-10T01:40:48;23.63;;;18.60;;
11817;SDS011;5966;52.402;5.322;2023-05-10T01:43:25;25.80;;;19.97;;
11817;SDS011;5966;52.402;5.322;2023-05-10T01:45:59;24.13;;;19.07;;
11817;SDS011;5966;52.402;5.322;2023-05-10T01:48:38;24.90;;;19.83;;
11817;SDS011;5966;52.402;5.322;2023-05-10T01:51:13;24.53;;;19.63;;
11817;SDS011;5966;52.402;5.322;2023-05-10T01:53:44;25.90;;;20.47;;
11817;SDS011;5966;52.402;5.322;2023-05-10T01:56:15;27.90;;;21.97;;
11817;SDS011;5966;52.402;5.322;2023-05-10T01:58:47;28.60;;;21.33;;
11817;SDS011;5966;52.402;5.322;2023-05-10T02:01:17;28.80;;;22.10;;
11817;SDS011;5966;52.402;5.322;2023-05-10T02:03:49;26.30;;;20.50;;
11817;SDS011;5966;52.402;5.322;2023-05-10T02:06:21;28.07;;;22.03;;
11817;SDS011;5966;52.402;5.322;2023-05-10T02:08:52;26.53;;;21.47;;
11817;SDS011;5966;52.402;5.322;2023-05-10T02:11:24;29.00;;;21.07;;
11817;SDS011;5966;52.402;5.322;2023-05-10T02:13:53;28.17;;;21.47;;
11817;SDS011;5966;52.402;5.322;2023-05-10T02:16:26;29.80;;;22.20;;
11817;SDS011;5966;52.402;5.322;2023-05-10T02:18:58;31.10;;;22.73;;
11817;SDS011;5966;52.402;5.322;2023-05-10T02:21:28;30.17;;;23.97;;
11817;SDS011;5966;52.402;5.322;2023-05-10T02:23:59;25.50;;;21.23;;
11817;SDS011;5966;52.402;5.322;2023-05-10T02:26:30;27.83;;;22.43;;
11817;SDS011;5966;52.402;5.322;2023-05-10T02:29:00;30.60;;;22.90;;
11817;SDS011;5966;52.402;5.322;2023-05-10T02:31:30;27.43;;;22.60;;
11817;SDS011;5966;52.402;5.322;2023-05-10T02:34:01;29.33;;;22.93;;
11817;SDS011;5966;52.402;5.322;2023-05-10T02:36:30;29.63;;;22.37;;
11817;SDS011;5966;52.402;5.322;2023-05-10T02:38:59;30.40;;;24.13;;
11817;SDS011;5966;52.402;5.322;2023-05-10T02:41:28;31.47;;;23.13;;
11817;SDS011;5966;52.402;5.322;2023-05-10T02:43:59;30.87;;;24.40;;
11817;SDS011;5966;52.402;5.322;2023-05-10T02:46:36;29.53;;;23.33;;
11817;SDS011;5966;52.402;5.322;2023-05-10T02:49:06;30.73;;;23.67;;
11817;SDS011;5966;52.402;5.322;2023-05-10T02:51:35;31.17;;;24.30;;
11817;SDS011;5966;52.402;5.322;2023-05-10T02:54:10;28.20;;;23.40;;
11817;SDS011;5966;52.402;5.322;2023-05-10T02:56:40;32.00;;;24.87;;
11817;SDS011;5966;52.402;5.322;2023-05-10T02:59:13;36.43;;;23.77;;
11817;SDS011;5966;52.402;5.322;2023-05-10T03:01:42;30.97;;;24.33;;
11817;SDS011;5966;52.402;5.322;2023-05-10T03:04:11;32.53;;;25.73;;
11817;SDS011;5966;52.402;5.322;2023-05-10T03:06:39;29.70;;;24.23;;
11817;SDS011;5966;52.402;5.322;2023-05-10T03:09:07;31.13;;;24.87;;
11817;SDS011;5966;52.402;5.322;2023-05-10T03:11:43;29.53;;;24.03;;
11817;SDS011;5966;52.402;5.322;2023-05-10T03:14:25;30.07;;;24.47;;
11817;SDS011;5966;52.402;5.322;2023-05-10T03:17:06;29.40;;;24.90;;
11817;SDS011;5966;52.402;5.322;2023-05-10T03:19:46;32.03;;;24.33;;
11817;SDS011;5966;52.402;5.322;2023-05-10T03:22:20;31.47;;;24.57;;
11817;SDS011;5966;52.402;5.322;2023-05-10T03:24:53;30.77;;;23.70;;
11817;SDS011;5966;52.402;5.322;2023-05-10T03:27:23;30.43;;;24.47;;
11817;SDS011;5966;52.402;5.322;2023-05-10T03:29:54;34.40;;;25.63;;
11817;SDS011;5966;52.402;5.322;2023-05-10T03:32:23;34.50;;;25.90;;
11817;SDS011;5966;52.402;5.322;2023-05-10T03:34:55;35.73;;;26.07;;
11817;SDS011;5966;52.402;5.322;2023-05-10T03:37:25;34.57;;;27.23;;
11817;SDS011;5966;52.402;5.322;2023-05-10T03:39:53;38.00;;;26.87;;
11817;SDS011;5966;52.402;5.322;2023-05-10T03:42:21;37.10;;;26.83;;
11817;SDS011;5966;52.402;5.322;2023-05-10T03:44:49;33.47;;;26.13;;
11817;SDS011;5966;52.402;5.322;2023-05-10T03:47:17;34.33;;;26.37;;
11817;SDS011;5966;52.402;5.322;2023-05-10T03:49:46;38.63;;;27.60;;
11817;SDS011;5966;52.402;5.322;2023-05-10T03:52:15;36.47;;;26.23;;
11817;SDS011;5966;52.402;5.322;2023-05-10T03:54:43;36.63;;;26.50;;
11817;SDS011;5966;52.402;5.322;2023-05-10T03:57:11;38.30;;;26.67;;
11817;SDS011;5966;52.402;5.322;2023-05-10T03:59:39;34.93;;;26.67;;
11817;SDS011;5966;52.402;5.322;2023-05-10T04:02:07;36.63;;;26.30;;
11817;SDS011;5966;52.402;5.322;2023-05-10T04:04:35;35.57;;;26.60;;
11817;SDS011;5966;52.402;5.322;2023-05-10T04:07:03;35.43;;;25.57;;
11817;SDS011;5966;52.402;5.322;2023-05-10T04:09:32;37.23;;;26.43;;
11817;SDS011;5966;52.402;5.322;2023-05-10T04:12:01;38.60;;;26.93;;
11817;SDS011;5966;52.402;5.322;2023-05-10T04:14:29;35.97;;;24.40;;
11817;SDS011;5966;52.402;5.322;2023-05-10T04:16:57;32.60;;;23.17;;
11817;SDS011;5966;52.402;5.322;2023-05-10T04:19:28;29.87;;;21.00;;
11817;SDS011;5966;52.402;5.322;2023-05-10T04:21:56;27.30;;;20.30;;
11817;SDS011;5966;52.402;5.322;2023-05-10T04:24:25;28.23;;;21.27;;
11817;SDS011;5966;52.402;5.322;2023-05-10T04:26:55;26.10;;;19.03;;
11817;SDS011;5966;52.402;5.322;2023-05-10T04:29:23;27.17;;;20.47;;
11817;SDS011;5966;52.402;5.322;2023-05-10T04:31:51;28.47;;;19.33;;
11817;SDS011;5966;52.402;5.322;2023-05-10T04:34:20;30.13;;;20.47;;
11817;SDS011;5966;52.402;5.322;2023-05-10T04:36:48;28.63;;;18.93;;
11817;SDS011;5966;52.402;5.322;2023-05-10T04:39:16;24.40;;;17.40;;
11817;SDS011;5966;52.402;5.322;2023-05-10T04:41:44;23.87;;;17.27;;
11817;SDS011;5966;52.402;5.322;2023-05-10T04:44:13;20.77;;;14.87;;
11817;SDS011;5966;52.402;5.322;2023-05-10T04:46:41;24.93;;;15.13;;
11817;SDS011;5966;52.402;5.322;2023-05-10T04:49:09;21.40;;;14.67;;
11817;SDS011;5966;52.402;5.322;2023-05-10T04:51:38;18.43;;;13.13;;
11817;SDS011;5966;52.402;5.322;2023-05-10T04:54:06;19.00;;;13.07;;
11817;SDS011;5966;52.402;5.322;2023-05-10T04:56:34;19.67;;;13.00;;
11817;SDS011;5966;52.402;5.322;2023-05-10T04:59:04;18.93;;;13.00;;
11817;SDS011;5966;52.402;5.322;2023-05-10T05:01:33;17.03;;;11.77;;
11817;SDS011;5966;52.402;5.322;2023-05-10T05:04:03;17.50;;;11.13;;
11817;SDS011;5966;52.402;5.322;2023-05-10T05:06:32;14.10;;;10.60;;
11817;SDS011;5966;52.402;5.322;2023-05-10T05:09:01;13.70;;;9.73;;
11817;SDS011;5966;52.402;5.322;2023-05-10T05:11:29;16.27;;;10.23;;
11817;SDS011;5966;52.402;5.322;2023-05-10T05:13:57;12.43;;;9.77;;
11817;SDS011;5966;52.402;5.322;2023-05-10T05:16:29;14.13;;;9.03;;
11817;SDS011;5966;52.402;5.322;2023-05-10T05:19:02;11.50;;;8.40;;
11817;SDS011;5966;52.402;5.322;2023-05-10T05:21:30;14.27;;;8.80;;
11817;SDS011;5966;52.402;5.322;2023-05-10T05:23:59;10.73;;;8.00;;
11817;SDS011;5966;52.402;5.322;2023-05-10T05:26:27;12.17;;;8.63;;
11817;SDS011;5966;52.402;5.322;2023-05-10T05:29:10;10.20;;;7.10;;
11817;SDS011;5966;52.402;5.322;2023-05-10T05:31:38;10.73;;;7.90;;
11817;SDS011;5966;52.402;5.322;2023-05-10T05:34:08;8.73;;;7.13;;
11817;SDS011;5966;52.402;5.322;2023-05-10T05:36:36;10.60;;;7.30;;
11817;SDS011;5966;52.402;5.322;2023-05-10T05:39:05;10.80;;;7.17;;
11817;SDS011;5966;52.402;5.322;2023-05-10T05:41:33;10.77;;;7.47;;
11817;SDS011;5966;52.402;5.322;2023-05-10T05:44:01;11.43;;;8.00;;
11817;SDS011;5966;52.402;5.322;2023-05-10T05:46:29;8.03;;;7.07;;
11817;SDS011;5966;52.402;5.322;2023-05-10T05:48:57;8.73;;;7.00;;
11817;SDS011;5966;52.402;5.322;2023-05-10T05:51:27;10.83;;;7.20;;
11817;SDS011;5966;52.402;5.322;2023-05-10T05:53:55;8.47;;;6.73;;
11817;SDS011;5966;52.402;5.322;2023-05-10T05:56:23;7.90;;;6.90;;
11817;SDS011;5966;52.402;5.322;2023-05-10T05:58:51;8.33;;;6.57;;
11817;SDS011;5966;52.402;5.322;2023-05-10T06:01:19;9.93;;;7.33;;
11817;SDS011;5966;52.402;5.322;2023-05-10T06:03:47;9.37;;;7.10;;
11817;SDS011;5966;52.402;5.322;2023-05-10T06:06:18;7.97;;;6.37;;
11817;SDS011;5966;52.402;5.322;2023-05-10T06:08:47;8.37;;;6.57;;
11817;SDS011;5966;52.402;5.322;2023-05-10T06:11:15;8.00;;;6.40;;
11817;SDS011;5966;52.402;5.322;2023-05-10T06:13:43;9.30;;;7.33;;
11817;SDS011;5966;52.402;5.322;2023-05-10T06:16:12;12.33;;;7.80;;
11817;SDS011;5966;52.402;5.322;2023-05-10T06:18:40;10.60;;;7.53;;
11817;SDS011;5966;52.402;5.322;2023-05-10T06:21:08;11.03;;;7.63;;
11817;SDS011;5966;52.402;5.322;2023-05-10T06:23:37;10.33;;;7.87;;
11817;SDS011;5966;52.402;5.322;2023-05-10T06:26:06;8.53;;;7.20;;
11817;SDS011;5966;52.402;5.322;2023-05-10T06:28:34;9.73;;;7.63;;
11817;SDS011;5966;52.402;5.322;2023-05-10T06:31:04;9.10;;;7.17;;
11817;SDS011;5966;52.402;5.322;2023-05-10T06:33:32;10.80;;;7.50;;
11817;SDS011;5966;52.402;5.322;2023-05-10T06:36:00;9.63;;;7.23;;
11817;SDS011;5966;52.402;5.322;2023-05-10T06:38:30;11.47;;;7.30;;
11817;SDS011;5966;52.402;5.322;2023-05-10T06:40:58;9.10;;;7.70;;
11817;SDS011;5966;52.402;5.322;2023-05-10T06:43:30;9.97;;;7.47;;
11817;SDS011;5966;52.402;5.322;2023-05-10T06:46:01;9.50;;;7.50;;
11817;SDS011;5966;52.402;5.322;2023-05-10T06:48:30;7.43;;;6.57;;
11817;SDS011;5966;52.402;5.322;2023-05-10T06:50:57;12.47;;;7.23;;
11817;SDS011;5966;52.402;5.322;2023-05-10T06:53:26;11.77;;;7.60;;
11817;SDS011;5966;52.402;5.322;2023-05-10T06:55:56;10.53;;;7.90;;
11817;SDS011;5966;52.402;5.322;2023-05-10T06:58:24;9.10;;;7.77;;
11817;SDS011;5966;52.402;5.322;2023-05-10T07:00:55;9.13;;;7.40;;
11817;SDS011;5966;52.402;5.322;2023-05-10T07:03:32;11.40;;;8.10;;
11817;SDS011;5966;52.402;5.322;2023-05-10T07:06:01;8.80;;;7.03;;
11817;SDS011;5966;52.402;5.322;2023-05-10T07:08:30;8.60;;;7.47;;
11817;SDS011;5966;52.402;5.322;2023-05-10T07:11:00;9.83;;;7.13;;
11817;SDS011;5966;52.402;5.322;2023-05-10T07:13:33;9.27;;;7.83;;
11817;SDS011;5966;52.402;5.322;2023-05-10T07:16:04;9.30;;;7.40;;
11817;SDS011;5966;52.402;5.322;2023-05-10T07:18:34;8.03;;;7.23;;
11817;SDS011;5966;52.402;5.322;2023-05-10T07:21:02;11.37;;;8.03;;
11817;SDS011;5966;52.402;5.322;2023-05-10T07:23:30;8.47;;;6.83;;
11817;SDS011;5966;52.402;5.322;2023-05-10T07:25:59;8.60;;;7.07;;
11817;SDS011;5966;52.402;5.322;2023-05-10T07:28:28;9.37;;;7.17;;
11817;SDS011;5966;52.402;5.322;2023-05-10T07:30:56;8.77;;;6.63;;
11817;SDS011;5966;52.402;5.322;2023-05-10T07:33:29;7.20;;;6.30;;
11817;SDS011;5966;52.402;5.322;2023-05-10T07:35:57;7.03;;;6.23;;
11817;SDS011;5966;52.402;5.322;2023-05-10T07:38:25;7.53;;;6.30;;
11817;SDS011;5966;52.402;5.322;2023-05-10T07:40:59;9.17;;;6.67;;
11817;SDS011;5966;52.402;5.322;2023-05-10T07:43:27;6.57;;;5.77;;
11817;SDS011;5966;52.402;5.322;2023-05-10T07:45:56;8.63;;;6.53;;
11817;SDS011;5966;52.402;5.322;2023-05-10T07:48:33;7.27;;;6.33;;
11817;SDS011;5966;52.402;5.322;2023-05-10T07:51:02;7.23;;;6.07;;
11817;SDS011;5966;52.402;5.322;2023-05-10T07:53:30;6.77;;;5.43;;
11817;SDS011;5966;52.402;5.322;2023-05-10T07:55:58;8.57;;;6.40;;
11817;SDS011;5966;52.402;5.322;2023-05-10T07:58:27;7.60;;;5.87;;
11817;SDS011;5966;52.402;5.322;2023-05-10T08:01:06;8.93;;;5.97;;
11817;SDS011;5966;52.402;5.322;2023-05-10T08:03:36;8.60;;;6.50;;
11817;SDS011;5966;52.402;5.322;2023-05-10T08:06:06;8.70;;;6.20;;
11817;SDS011;5966;52.402;5.322;2023-05-10T08:08:34;6.20;;;5.57;;
11817;SDS011;5966;52.402;5.322;2023-05-10T08:11:11;8.97;;;6.30;;
11817;SDS011;5966;52.402;5.322;2023-05-10T08:13:42;7.17;;;5.90;;
11817;SDS011;5966;52.402;5.322;2023-05-10T08:16:11;6.53;;;5.60;;
11817;SDS011;5966;52.402;5.322;2023-05-10T08:18:41;7.77;;;5.77;;
11817;SDS011;5966;52.402;5.322;2023-05-10T08:21:09;7.30;;;5.77;;
11817;SDS011;5966;52.402;5.322;2023-05-10T08:23:37;7.83;;;5.80;;
11817;SDS011;5966;52.402;5.322;2023-05-10T08:26:09;7.53;;;5.50;;
11817;SDS011;5966;52.402;5.322;2023-05-10T08:28:38;7.73;;;5.63;;
11817;SDS011;5966;52.402;5.322;2023-05-10T08:31:06;8.40;;;6.43;;
11817;SDS011;5966;52.402;5.322;2023-05-10T08:33:34;7.30;;;6.23;;
11817;SDS011;5966;52.402;5.322;2023-05-10T08:36:07;7.63;;;6.00;;
11817;SDS011;5966;52.402;5.322;2023-05-10T08:38:36;7.27;;;6.30;;
11817;SDS011;5966;52.402;5.322;2023-05-10T08:41:05;8.50;;;6.00;;
11817;SDS011;5966;52.402;5.322;2023-05-10T08:43:35;6.90;;;5.93;;
11817;SDS011;5966;52.402;5.322;2023-05-10T08:46:03;6.13;;;5.53;;
11817;SDS011;5966;52.402;5.322;2023-05-10T08:48:34;9.10;;;6.10;;
11817;SDS011;5966;52.402;5.322;2023-05-10T08:51:02;8.40;;;5.80;;
11817;SDS011;5966;52.402;5.322;2023-05-10T08:53:33;8.97;;;6.30;;
11817;SDS011;5966;52.402;5.322;2023-05-10T08:56:04;7.83;;;6.40;;
11817;SDS011;5966;52.402;5.322;2023-05-10T08:58:33;8.60;;;5.87;;
11817;SDS011;5966;52.402;5.322;2023-05-10T09:01:01;9.17;;;6.00;;
11817;SDS011;5966;52.402;5.322;2023-05-10T09:03:30;7.33;;;5.80;;
11817;SDS011;5966;52.402;5.322;2023-05-10T09:05:59;6.67;;;6.00;;
11817;SDS011;5966;52.402;5.322;2023-05-10T09:08:27;10.10;;;6.00;;
11817;SDS011;5966;52.402;5.322;2023-05-10T09:10:58;7.17;;;5.80;;
11817;SDS011;5966;52.402;5.322;2023-05-10T09:13:30;9.00;;;6.80;;
11817;SDS011;5966;52.402;5.322;2023-05-10T09:15:59;7.90;;;6.13;;
11817;SDS011;5966;52.402;5.322;2023-05-10T09:18:46;7.93;;;6.47;;
11817;SDS011;5966;52.402;5.322;2023-05-10T09:21:16;9.33;;;7.27;;
11817;SDS011;5966;52.402;5.322;2023-05-10T09:23:45;10.40;;;8.33;;
11817;SDS011;5966;52.402;5.322;2023-05-10T09:26:15;9.83;;;7.80;;
11817;SDS011;5966;52.402;5.322;2023-05-10T09:28:51;8.37;;;6.90;;
11817;SDS011;5966;52.402;5.322;2023-05-10T09:31:21;7.83;;;6.50;;
11817;SDS011;5966;52.402;5.322;2023-05-10T09:33:50;10.63;;;7.03;;
11817;SDS011;5966;52.402;5.322;2023-05-10T09:36:18;8.60;;;6.50;;
11817;SDS011;5966;52.402;5.322;2023-05-10T09:38:47;7.37;;;6.47;;
11817;SDS011;5966;52.402;5.322;2023-05-10T09:41:17;6.70;;;6.00;;
11817;SDS011;5966;52.402;5.322;2023-05-10T09:43:47;7.30;;;6.03;;
11817;SDS011;5966;52.402;5.322;2023-05-10T09:46:15;7.03;;;6.27;;
11817;SDS011;5966;52.402;5.322;2023-05-10T09:48:44;7.10;;;6.37;;
11817;SDS011;5966;52.402;5.322;2023-05-10T09:51:20;7.10;;;6.13;;
11817;SDS011;5966;52.402;5.322;2023-05-10T09:53:49;9.17;;;6.93;;
11817;SDS011;5966;52.402;5.322;2023-05-10T09:56:38;8.67;;;7.17;;
11817;SDS011;5966;52.402;5.322;2023-05-10T09:59:07;9.60;;;7.30;;
11817;SDS011;5966;52.402;5.322;2023-05-10T10:01:38;8.67;;;7.10;;
11817;SDS011;5966;52.402;5.322;2023-05-10T10:04:07;8.47;;;6.50;;
11817;SDS011;5966;52.402;5.322;2023-05-10T10:06:36;9.57;;;8.07;;
11817;SDS011;5966;52.402;5.322;2023-05-10T10:09:05;9.67;;;7.47;;
11817;SDS011;5966;52.402;5.322;2023-05-10T10:11:35;10.10;;;8.20;;
11817;SDS011;5966;52.402;5.322;2023-05-10T10:14:06;9.67;;;8.07;;
11817;SDS011;5966;52.402;5.322;2023-05-10T10:16:34;11.20;;;7.87;;
11817;SDS011;5966;52.402;5.322;2023-05-10T10:19:11;7.97;;;7.17;;
11817;SDS011;5966;52.402;5.322;2023-05-10T10:21:40;13.17;;;8.73;;
11817;SDS011;5966;52.402;5.322;2023-05-10T10:24:08;10.57;;;8.23;;
11817;SDS011;5966;52.402;5.322;2023-05-10T10:26:36;9.73;;;8.03;;
11817;SDS011;5966;52.402;5.322;2023-05-10T10:29:08;8.87;;;6.83;;
11817;SDS011;5966;52.402;5.322;2023-05-10T10:31:45;7.43;;;6.37;;
11817;SDS011;5966;52.402;5.322;2023-05-10T10:34:21;6.00;;;5.40;;
11817;SDS011;5966;52.402;5.322;2023-05-10T10:36:56;6.67;;;6.07;;
11817;SDS011;5966;52.402;5.322;2023-05-10T10:39:24;6.97;;;6.37;;
11817;SDS011;5966;52.402;5.322;2023-05-10T10:41:54;6.43;;;5.73;;
11817;SDS011;5966;52.402;5.322;2023-05-10T10:44:33;7.73;;;5.70;;
11817;SDS011;5966;52.402;5.322;2023-05-10T10:47:05;6.00;;;5.33;;
11817;SDS011;5966;52.402;5.322;2023-05-10T10:52:33;6.33;;;5.67;;
11817;SDS011;5966;52.402;5.322;2023-05-10T10:55:04;6.67;;;6.00;;
11817;SDS011;5966;52.402;5.322;2023-05-10T10:57:42;6.93;;;5.77;;
11817;SDS011;5966;52.402;5.322;2023-05-10T11:00:21;7.20;;;5.90;;
11817;SDS011;5966;52.402;5.322;2023-05-10T11:02:55;5.93;;;5.13;;
11817;SDS011;5966;52.402;5.322;2023-05-10T11:05:34;5.60;;;5.10;;
11817;SDS011;5966;52.402;5.322;2023-05-10T11:08:09;5.03;;;4.53;;
11817;SDS011;5966;52.402;5.322;2023-05-10T11:10:49;5.13;;;4.70;;
11817;SDS011;5966;52.402;5.322;2023-05-10T11:13:26;5.97;;;5.00;;
11817;SDS011;5966;52.402;5.322;2023-05-10T11:15:58;4.63;;;4.23;;
11817;SDS011;5966;52.402;5.322;2023-05-10T11:18:38;5.53;;;4.97;;
11817;SDS011;5966;52.402;5.322;2023-05-10T11:21:09;4.17;;;3.80;;
11817;SDS011;5966;52.402;5.322;2023-05-10T11:23:47;5.67;;;4.40;;
11817;SDS011;5966;52.402;5.322;2023-05-10T11:26:22;6.27;;;5.57;;
11817;SDS011;5966;52.402;5.322;2023-05-10T11:28:53;6.17;;;5.53;;
11817;SDS011;5966;52.402;5.322;2023-05-10T11:31:24;5.47;;;4.97;;
11817;SDS011;5966;52.402;5.322;2023-05-10T11:33:54;5.63;;;4.93;;
11817;SDS011;5966;52.402;5.322;2023-05-10T11:36:24;4.93;;;4.43;;
11817;SDS011;5966;52.402;5.322;2023-05-10T11:38:54;6.67;;;4.43;;
11817;SDS011;5966;52.402;5.322;2023-05-10T11:41:26;5.23;;;4.30;;
11817;SDS011;5966;52.402;5.322;2023-05-10T11:43:56;4.37;;;3.97;;
11817;SDS011;5966;52.402;5.322;2023-05-10T11:46:27;7.93;;;4.30;;
11817;SDS011;5966;52.402;5.322;2023-05-10T11:48:58;4.93;;;4.10;;
11817;SDS011;5966;52.402;5.322;2023-05-10T11:51:32;6.27;;;4.53;;
11817;SDS011;5966;52.402;5.322;2023-05-10T11:54:04;5.07;;;4.20;;
11817;SDS011;5966;52.402;5.322;2023-05-10T11:56:33;4.70;;;4.23;;
11817;SDS011;5966;52.402;5.322;2023-05-10T11:59:01;5.13;;;4.63;;
11817;SDS011;5966;52.402;5.322;2023-05-10T12:01:32;5.77;;;4.70;;
11817;SDS011;5966;52.402;5.322;2023-05-10T12:04:00;5.90;;;5.20;;
11817;SDS011;5966;52.402;5.322;2023-05-10T12:06:30;6.53;;;5.77;;
11817;SDS011;5966;52.402;5.322;2023-05-10T12:09:01;6.90;;;4.80;;
11817;SDS011;5966;52.402;5.322;2023-05-10T12:11:36;7.50;;;5.60;;
11817;SDS011;5966;52.402;5.322;2023-05-10T12:14:09;7.27;;;5.60;;
11817;SDS011;5966;52.402;5.322;2023-05-10T12:16:41;7.20;;;4.60;;
11817;SDS011;5966;52.402;5.322;2023-05-10T12:19:11;8.53;;;5.77;;
11817;SDS011;5966;52.402;5.322;2023-05-10T12:21:42;7.03;;;5.00;;
11817;SDS011;5966;52.402;5.322;2023-05-10T12:24:12;6.13;;;5.13;;
11817;SDS011;5966;52.402;5.322;2023-05-10T12:26:42;7.60;;;5.80;;
11817;SDS011;5966;52.402;5.322;2023-05-10T12:29:17;6.57;;;5.87;;
11817;SDS011;5966;52.402;5.322;2023-05-10T12:31:51;8.33;;;5.90;;
11817;SDS011;5966;52.402;5.322;2023-05-10T12:34:24;7.30;;;5.80;;
11817;SDS011;5966;52.402;5.322;2023-05-10T12:36:54;9.30;;;6.27;;
11817;SDS011;5966;52.402;5.322;2023-05-10T12:39:23;8.00;;;5.87;;
11817;SDS011;5966;52.402;5.322;2023-05-10T12:41:51;9.60;;;6.10;;
11817;SDS011;5966;52.402;5.322;2023-05-10T12:44:21;7.80;;;6.10;;
11817;SDS011;5966;52.402;5.322;2023-05-10T12:46:49;8.40;;;6.40;;
11817;SDS011;5966;52.402;5.322;2023-05-10T12:49:18;9.17;;;6.10;;
11817;SDS011;5966;52.402;5.322;2023-05-10T12:51:46;6.97;;;6.10;;
11817;SDS011;5966;52.402;5.322;2023-05-10T12:54:14;6.03;;;5.27;;
11817;SDS011;5966;52.402;5.322;2023-05-10T12:56:42;6.87;;;4.87;;
11817;SDS011;5966;52.402;5.322;2023-05-10T12:59:12;5.10;;;3.93;;
11817;SDS011;5966;52.402;5.322;2023-05-10T13:01:40;5.53;;;3.53;;
11817;SDS011;5966;52.402;5.322;2023-05-10T13:04:08;4.23;;;3.67;;
11817;SDS011;5966;52.402;5.322;2023-05-10T13:06:37;4.20;;;3.47;;
11817;SDS011;5966;52.402;5.322;2023-05-10T13:09:05;4.90;;;3.57;;
11817;SDS011;5966;52.402;5.322;2023-05-10T13:11:34;4.13;;;3.63;;
11817;SDS011;5966;52.402;5.322;2023-05-10T13:14:02;4.53;;;3.27;;
11817;SDS011;5966;52.402;5.322;2023-05-10T13:16:30;4.17;;;3.53;;
11817;SDS011;5966;52.402;5.322;2023-05-10T13:18:59;5.20;;;4.17;;
11817;SDS011;5966;52.402;5.322;2023-05-10T13:21:27;5.90;;;4.73;;
11817;SDS011;5966;52.402;5.322;2023-05-10T13:23:56;5.57;;;4.47;;
11817;SDS011;5966;52.402;5.322;2023-05-10T13:26:25;7.30;;;4.87;;
11817;SDS011;5966;52.402;5.322;2023-05-10T13:28:53;6.23;;;4.90;;
11817;SDS011;5966;52.402;5.322;2023-05-10T13:31:22;6.20;;;5.17;;
11817;SDS011;5966;52.402;5.322;2023-05-10T13:33:51;5.83;;;4.90;;
11817;SDS011;5966;52.402;5.322;2023-05-10T13:36:24;6.67;;;5.47;;
11817;SDS011;5966;52.402;5.322;2023-05-10T13:38:54;9.40;;;5.80;;
11817;SDS011;5966;52.402;5.322;2023-05-10T13:41:24;9.27;;;6.17;;
11817;SDS011;5966;52.402;5.322;2023-05-10T13:43:53;6.93;;;6.20;;
11817;SDS011;5966;52.402;5.322;2023-05-10T13:46:21;8.70;;;7.20;;
11817;SDS011;5966;52.402;5.322;2023-05-10T13:48:49;7.03;;;5.77;;
11817;SDS011;5966;52.402;5.322;2023-05-10T13:51:21;8.83;;;6.83;;
11817;SDS011;5966;52.402;5.322;2023-05-10T13:53:49;8.07;;;6.73;;
11817;SDS011;5966;52.402;5.322;2023-05-10T13:56:18;9.33;;;5.90;;
11817;SDS011;5966;52.402;5.322;2023-05-10T13:58:47;9.47;;;6.63;;
11817;SDS011;5966;52.402;5.322;2023-05-10T14:01:15;10.97;;;6.97;;
11817;SDS011;5966;52.402;5.322;2023-05-10T14:03:43;8.93;;;6.50;;
11817;SDS011;5966;52.402;5.322;2023-05-10T14:06:11;9.37;;;6.77;;
11817;SDS011;5966;52.402;5.322;2023-05-10T14:08:39;8.67;;;6.67;;
11817;SDS011;5966;52.402;5.322;2023-05-10T14:11:08;7.63;;;5.60;;
11817;SDS011;5966;52.402;5.322;2023-05-10T14:13:38;8.70;;;5.60;;
11817;SDS011;5966;52.402;5.322;2023-05-10T14:16:07;9.37;;;6.00;;
11817;SDS011;5966;52.402;5.322;2023-05-10T14:18:35;8.00;;;5.90;;
11817;SDS011;5966;52.402;5.322;2023-05-10T14:21:03;8.10;;;6.00;;
11817;SDS011;5966;52.402;5.322;2023-05-10T14:23:31;9.87;;;5.97;;
11817;SDS011;5966;52.402;5.322;2023-05-10T14:25:59;7.43;;;6.17;;
11817;SDS011;5966;52.402;5.322;2023-05-10T14:28:28;8.43;;;6.17;;
11817;SDS011;5966;52.402;5.322;2023-05-10T14:30:56;7.57;;;6.77;;
11817;SDS011;5966;52.402;5.322;2023-05-10T14:33:26;6.87;;;6.00;;
11817;SDS011;5966;52.402;5.322;2023-05-10T14:35:54;7.93;;;6.03;;
11817;SDS011;5966;52.402;5.322;2023-05-10T14:38:23;8.73;;;6.33;;
11817;SDS011;5966;52.402;5.322;2023-05-10T14:40:52;6.67;;;6.00;;
11817;SDS011;5966;52.402;5.322;2023-05-10T14:43:20;7.80;;;6.23;;
11817;SDS011;5966;52.402;5.322;2023-05-10T14:45:49;9.97;;;6.20;;
11817;SDS011;5966;52.402;5.322;2023-05-10T14:48:17;8.47;;;6.60;;
11817;SDS011;5966;52.402;5.322;2023-05-10T14:50:48;7.33;;;5.07;;
11817;SDS011;5966;52.402;5.322;2023-05-10T14:53:18;5.70;;;4.60;;
11817;SDS011;5966;52.402;5.322;2023-05-10T14:55:47;5.67;;;4.37;;
11817;SDS011;5966;52.402;5.322;2023-05-10T14:58:18;5.67;;;4.70;;
11817;SDS011;5966;52.402;5.322;2023-05-10T15:00:47;5.07;;;4.00;;
11817;SDS011;5966;52.402;5.322;2023-05-10T15:03:15;4.37;;;3.83;;
11817;SDS011;5966;52.402;5.322;2023-05-10T15:05:44;6.93;;;5.37;;
11817;SDS011;5966;52.402;5.322;2023-05-10T15:08:15;10.07;;;6.90;;
11817;SDS011;5966;52.402;5.322;2023-05-10T15:10:44;8.27;;;6.53;;
11817;SDS011;5966;52.402;5.322;2023-05-10T15:13:12;7.43;;;6.27;;
11817;SDS011;5966;52.402;5.322;2023-05-10T15:15:40;9.43;;;6.73;;